createdAt,value
2018-03-26T00:00:42.114Z,39.07
2018-03-26T00:03:10.401Z,38.63
2018-03-26T00:05:38.674Z,42.87
2018-03-26T00:08:06.954Z,37.27
2018-03-26T00:10:34.463Z,40.73
2018-03-26T00:13:02.662Z,39.37
2018-03-26T00:15:30.254Z,39.47
2018-03-26T00:17:59.246Z,41.17
2018-03-26T00:20:26.748Z,35.37
2018-03-26T00:22:54.244Z,41.83
2018-03-26T00:25:21.759Z,36.30
2018-03-26T00:27:50.048Z,33.10
2018-03-26T00:30:18.881Z,41.87
2018-03-26T00:32:46.407Z,36.67
2018-03-26T00:35:14.706Z,46.50
2018-03-26T00:37:42.957Z,38.87
2018-03-26T00:40:10.487Z,38.57
2018-03-26T00:42:39.264Z,38.60
2018-03-26T00:45:07.564Z,35.43
2018-03-26T00:47:35.072Z,34.90
2018-03-26T00:50:03.590Z,40.30
2018-03-26T00:52:31.110Z,36.90
2018-03-26T00:54:59.569Z,35.83
2018-03-26T00:57:29.615Z,38.10
2018-03-26T00:59:57.893Z,37.67
2018-03-26T01:02:26.169Z,40.60
2018-03-26T01:04:54.433Z,37.90
2018-03-26T01:07:21.959Z,35.87
2018-03-26T01:09:49.503Z,32.93
2018-03-26T01:12:16.997Z,38.47
2018-03-26T01:14:44.525Z,35.83
2018-03-26T01:17:12.777Z,37.93
2018-03-26T01:19:41.248Z,50.33
2018-03-26T01:22:08.798Z,32.40
2018-03-26T01:24:36.326Z,31.93
2018-03-26T01:27:03.827Z,36.30
2018-03-26T01:29:31.361Z,34.20
2018-03-26T01:31:58.889Z,35.10
2018-03-26T01:34:27.295Z,34.37
2018-03-26T01:36:54.791Z,42.47
2018-03-26T01:39:22.310Z,35.33
2018-03-26T01:41:50.585Z,38.53
2018-03-26T01:44:18.867Z,35.00
2018-03-26T01:46:47.152Z,34.30
2018-03-26T01:49:16.539Z,35.77
2018-03-26T01:51:44.066Z,32.37
2018-03-26T01:54:11.560Z,34.50
2018-03-26T01:56:39.120Z,36.33
2018-03-26T01:59:07.413Z,38.20
2018-03-26T02:01:34.944Z,36.90
2018-03-26T02:04:02.499Z,36.00
2018-03-26T02:06:30.020Z,37.33
2018-03-26T02:08:58.307Z,36.40
2018-03-26T02:11:26.576Z,33.03
2018-03-26T02:13:54.858Z,35.50
2018-03-26T02:16:23.114Z,38.70
2018-03-26T02:18:51.397Z,34.43
2018-03-26T02:21:18.880Z,36.30
2018-03-26T02:23:47.198Z,38.03
2018-03-26T02:26:14.701Z,42.00
2018-03-26T02:28:42.294Z,34.53
2018-03-26T02:31:10.581Z,42.50
2018-03-26T02:33:38.941Z,40.77
2018-03-26T02:36:08.442Z,35.27
2018-03-26T02:38:36.037Z,39.13
2018-03-26T02:41:04.307Z,47.80
2018-03-26T02:43:32.604Z,37.97
2018-03-26T02:46:00.894Z,35.97
2018-03-26T02:48:30.316Z,36.40
2018-03-26T02:50:57.836Z,36.97
2018-03-26T02:53:26.230Z,40.73
2018-03-26T02:55:54.530Z,38.60
2018-03-26T02:58:22.074Z,37.30
2018-03-26T03:00:50.357Z,37.60
2018-03-26T03:03:20.429Z,38.70
2018-03-26T03:05:47.911Z,37.10
2018-03-26T03:08:15.432Z,37.80
2018-03-26T03:10:43.053Z,37.63
2018-03-26T03:13:10.570Z,39.43
2018-03-26T03:15:38.087Z,34.73
2018-03-26T03:18:06.345Z,34.90
2018-03-26T03:20:33.858Z,36.67
2018-03-26T03:23:01.366Z,38.43
2018-03-26T03:25:29.820Z,37.97
2018-03-26T03:27:57.477Z,41.07
2018-03-26T03:30:25.551Z,41.80
2018-03-26T03:32:53.045Z,35.47
2018-03-26T03:35:20.545Z,42.93
2018-03-26T03:37:48.825Z,37.60
2018-03-26T03:40:16.334Z,46.93
2018-03-26T03:42:43.848Z,39.90
2018-03-26T03:45:11.374Z,53.03
2018-03-26T03:47:39.058Z,43.93
2018-03-26T03:50:06.555Z,44.17
2018-03-26T03:52:34.814Z,43.77
2018-03-26T03:55:03.110Z,47.57
2018-03-26T03:57:31.385Z,45.03
2018-03-26T03:59:58.892Z,48.80
2018-03-26T04:02:26.386Z,45.80
2018-03-26T04:04:53.906Z,36.57
2018-03-26T04:07:21.407Z,48.10
2018-03-26T04:09:48.986Z,46.37
2018-03-26T04:12:16.506Z,43.87
2018-03-26T04:14:44.004Z,41.77
2018-03-26T04:17:11.519Z,44.87
2018-03-26T04:19:39.018Z,48.47
2018-03-26T04:22:06.536Z,46.30
2018-03-26T04:24:35.314Z,45.20
2018-03-26T04:27:03.627Z,49.63
2018-03-26T04:29:32.620Z,57.07
2018-03-26T04:32:00.747Z,45.70
2018-03-26T04:34:28.260Z,50.93
2018-03-26T04:36:55.770Z,44.67
2018-03-26T04:39:23.272Z,42.73
2018-03-26T04:41:51.589Z,40.57
2018-03-26T04:44:19.094Z,54.17
2018-03-26T04:46:46.707Z,43.83
2018-03-26T04:49:14.218Z,44.30
2018-03-26T04:51:43.299Z,49.07
2018-03-26T04:54:10.848Z,49.57
2018-03-26T04:56:38.366Z,48.73
2018-03-26T04:59:06.632Z,47.67
2018-03-26T05:01:34.136Z,45.20
2018-03-26T05:04:01.659Z,49.40
2018-03-26T05:06:29.169Z,49.30
2018-03-26T05:08:56.680Z,52.97
2018-03-26T05:11:24.171Z,47.73
2018-03-26T05:13:52.534Z,44.03
2018-03-26T05:16:20.052Z,60.03
2018-03-26T05:18:47.613Z,51.47
2018-03-26T05:21:15.169Z,48.20
2018-03-26T05:23:42.721Z,57.33
2018-03-26T05:26:10.377Z,50.87
2018-03-26T05:28:37.949Z,52.10
2018-03-26T05:31:05.531Z,50.00
2018-03-26T05:33:32.978Z,41.90
2018-03-26T05:36:00.503Z,49.97
2018-03-26T05:38:28.791Z,43.47
2018-03-26T05:40:57.111Z,46.07
2018-03-26T05:43:26.155Z,49.90
2018-03-26T05:45:53.655Z,45.63
2018-03-26T05:48:21.932Z,39.20
2018-03-26T05:50:50.208Z,45.47
2018-03-26T05:53:18.467Z,41.80
2018-03-26T05:55:45.973Z,45.47
2018-03-26T05:58:13.526Z,42.20
2018-03-26T06:00:41.829Z,43.37
2018-03-26T06:03:10.308Z,41.73
2018-03-26T06:05:37.820Z,44.20
2018-03-26T06:08:05.312Z,43.40
2018-03-26T06:10:33.593Z,44.63
2018-03-26T06:13:01.871Z,43.77
2018-03-26T06:15:30.232Z,48.93
2018-03-26T06:17:57.761Z,47.53
2018-03-26T06:20:25.979Z,39.57
2018-03-26T06:22:53.559Z,46.20
2018-03-26T06:25:21.836Z,47.90
2018-03-26T06:27:50.132Z,50.03
2018-03-26T06:30:18.419Z,43.00
2018-03-26T06:32:47.291Z,48.83
2018-03-26T06:35:14.802Z,46.73
2018-03-26T06:37:42.303Z,40.03
2018-03-26T06:40:09.881Z,52.80
2018-03-26T06:42:38.154Z,34.87
2018-03-26T06:45:05.714Z,40.80
2018-03-26T06:47:33.261Z,46.33
2018-03-26T06:50:00.990Z,52.47
2018-03-26T06:52:28.521Z,42.20
2018-03-26T06:54:56.009Z,41.67
2018-03-26T06:57:23.779Z,40.57
2018-03-26T06:59:52.124Z,40.00
2018-03-26T07:02:19.652Z,41.50
2018-03-26T07:04:47.170Z,35.20
2018-03-26T07:07:15.481Z,35.10
2018-03-26T07:09:42.990Z,31.20
2018-03-26T07:12:10.817Z,38.13
2018-03-26T07:14:38.591Z,40.00
2018-03-26T07:17:06.120Z,31.73
2018-03-26T07:19:34.412Z,39.40
2018-03-26T07:22:02.969Z,32.97
2018-03-26T07:24:31.274Z,38.87
2018-03-26T07:26:59.734Z,42.80
2018-03-26T07:29:27.354Z,42.30
2018-03-26T07:31:54.894Z,39.83
2018-03-26T07:34:22.439Z,34.00
2018-03-26T07:36:50.749Z,39.67
2018-03-26T07:39:19.022Z,42.47
2018-03-26T07:41:47.326Z,43.07
2018-03-26T07:44:14.841Z,37.00
2018-03-26T07:46:42.368Z,40.10
2018-03-26T07:49:10.048Z,37.50
2018-03-26T07:51:37.636Z,42.10
2018-03-26T07:54:05.899Z,49.50
2018-03-26T07:56:33.409Z,49.27
2018-03-26T07:59:00.935Z,47.30
2018-03-26T08:01:28.461Z,41.67
2018-03-26T08:03:56.610Z,45.30
2018-03-26T08:06:26.013Z,48.63
2018-03-26T08:08:53.540Z,46.60
2018-03-26T08:11:21.154Z,48.57
2018-03-26T08:13:49.731Z,42.80
2018-03-26T08:16:17.294Z,48.70
2018-03-26T08:18:45.564Z,46.47
2018-03-26T08:21:14.970Z,50.20
2018-03-26T08:23:43.307Z,39.83
2018-03-26T08:26:10.792Z,42.37
2018-03-26T08:28:38.294Z,43.73
2018-03-26T08:31:06.720Z,43.30
2018-03-26T08:33:34.234Z,40.07
2018-03-26T08:36:02.518Z,45.57
2018-03-26T08:38:30.164Z,38.83
2018-03-26T08:40:57.690Z,50.30
2018-03-26T08:43:25.206Z,49.00
2018-03-26T08:45:53.452Z,46.90
2018-03-26T08:48:21.174Z,49.47
2018-03-26T08:50:48.661Z,49.00
2018-03-26T08:53:16.221Z,49.23
2018-03-26T08:55:43.740Z,48.67
2018-03-26T08:58:12.242Z,59.27
2018-03-26T09:00:39.747Z,45.43
2018-03-26T09:03:07.306Z,47.83
2018-03-26T09:05:34.849Z,55.00
2018-03-26T09:08:02.447Z,49.40
2018-03-26T09:10:30.014Z,45.00
2018-03-26T09:12:57.548Z,47.77
2018-03-26T09:15:25.172Z,50.23
2018-03-26T09:17:53.449Z,55.80
2018-03-26T09:20:21.717Z,53.47
2018-03-26T09:22:49.338Z,49.30
2018-03-26T09:25:17.758Z,48.77
2018-03-26T09:27:46.074Z,48.27
2018-03-26T09:30:14.386Z,53.73
2018-03-26T09:32:42.912Z,52.63
2018-03-26T09:35:10.431Z,54.27
2018-03-26T09:37:38.787Z,54.67
2018-03-26T09:40:07.261Z,47.00
2018-03-26T09:42:35.894Z,59.83
2018-03-26T09:45:03.412Z,49.30
2018-03-26T09:47:31.694Z,55.53
2018-03-26T09:49:59.962Z,67.00
2018-03-26T09:52:27.477Z,53.23
2018-03-26T09:54:55.182Z,59.07
2018-03-26T09:57:22.705Z,53.73
2018-03-26T09:59:50.210Z,56.77
2018-03-26T10:02:19.252Z,58.00
2018-03-26T10:04:47.543Z,54.37
2018-03-26T10:07:15.140Z,53.90
2018-03-26T10:09:43.169Z,61.80
2018-03-26T10:12:11.842Z,57.27
2018-03-26T10:14:40.976Z,52.57
2018-03-26T10:17:08.516Z,64.83
2018-03-26T10:19:36.029Z,60.83
2018-03-26T10:22:03.562Z,57.30
2018-03-26T10:24:31.688Z,59.17
2018-03-26T10:26:59.636Z,56.27
2018-03-26T10:29:27.152Z,65.27
2018-03-26T10:31:54.736Z,69.77
2018-03-26T10:34:23.062Z,61.53
2018-03-26T10:36:51.498Z,68.97
2018-03-26T10:39:19.816Z,58.37
2018-03-26T10:41:47.334Z,76.93
2018-03-26T10:44:15.623Z,72.73
2018-03-26T10:46:43.982Z,67.47
2018-03-26T10:49:11.520Z,84.60
2018-03-26T10:51:39.010Z,70.33
2018-03-26T10:54:08.262Z,65.17
2018-03-26T10:56:35.770Z,60.37
2018-03-26T10:59:03.288Z,65.43
2018-03-26T11:01:30.796Z,69.90
2018-03-26T11:03:58.295Z,70.13
2018-03-26T11:06:25.834Z,68.17
2018-03-26T11:08:53.453Z,72.23
2018-03-26T11:11:20.953Z,70.10
2018-03-26T11:13:49.211Z,68.20
2018-03-26T11:16:16.859Z,85.83
2018-03-26T11:18:44.234Z,61.40
2018-03-26T11:21:12.456Z,80.93
2018-03-26T11:23:40.836Z,68.13
2018-03-26T11:26:09.103Z,73.20
2018-03-26T11:28:36.630Z,63.10
2018-03-26T11:31:04.140Z,64.37
2018-03-26T11:33:32.414Z,68.80
2018-03-26T11:35:59.922Z,65.30
2018-03-26T11:38:27.414Z,58.87
2018-03-26T11:40:54.916Z,57.10
2018-03-26T11:43:23.204Z,56.20
2018-03-26T11:45:51.486Z,55.37
2018-03-26T11:48:19.082Z,69.03
2018-03-26T11:50:46.699Z,57.67
2018-03-26T11:53:15.032Z,48.53
2018-03-26T11:55:42.552Z,44.43
2018-03-26T11:58:10.844Z,56.50
2018-03-26T12:00:39.252Z,45.23
2018-03-26T12:03:06.860Z,41.70
2018-03-26T12:05:34.488Z,51.53
2018-03-26T12:08:02.081Z,47.37
2018-03-26T12:10:29.601Z,48.77
2018-03-26T12:12:58.523Z,45.90
2018-03-26T12:15:26.171Z,39.27
2018-03-26T12:17:53.702Z,41.37
2018-03-26T12:20:33.765Z,49.50
2018-03-26T12:23:13.252Z,45.70
2018-03-26T12:25:40.761Z,44.13
2018-03-26T12:28:21.048Z,49.27
2018-03-26T12:30:48.576Z,40.73
2018-03-26T12:33:16.927Z,63.00
2018-03-26T12:36:00.425Z,59.33
2018-03-26T12:38:27.912Z,57.83
2018-03-26T12:40:56.556Z,49.27
2018-03-26T12:43:24.079Z,63.10
2018-03-26T12:46:04.277Z,57.13
2018-03-26T12:48:31.773Z,54.90
2018-03-26T12:51:11.222Z,63.10
2018-03-26T12:53:39.628Z,53.60
2018-03-26T12:56:08.867Z,54.37
2018-03-26T12:58:44.250Z,96.83
2018-03-26T13:01:24.382Z,52.40
2018-03-26T13:03:51.946Z,47.27
2018-03-26T13:06:19.455Z,43.50
2018-03-26T13:08:47.731Z,40.43
2018-03-26T13:11:16.661Z,32.20
2018-03-26T13:13:44.235Z,42.00
2018-03-26T13:16:13.378Z,37.80
2018-03-26T13:18:41.656Z,30.40
2018-03-26T13:21:10.426Z,30.60
2018-03-26T13:23:37.971Z,32.90
2018-03-26T13:26:05.578Z,37.80
2018-03-26T13:28:33.098Z,36.60
2018-03-26T13:31:00.654Z,34.30
2018-03-26T13:33:28.398Z,40.40
2018-03-26T13:35:56.736Z,38.00
2018-03-26T13:38:24.355Z,47.30
2018-03-26T13:40:52.006Z,34.60
2018-03-26T13:43:20.310Z,40.33
2018-03-26T13:45:47.948Z,37.07
2018-03-26T13:48:16.271Z,44.57
2018-03-26T13:50:43.772Z,48.30
2018-03-26T13:53:11.302Z,52.90
2018-03-26T13:55:38.792Z,50.50
2018-03-26T13:58:06.286Z,49.13
2018-03-26T14:00:34.875Z,39.33
2018-03-26T14:03:04.021Z,46.93
2018-03-26T14:05:31.498Z,30.70
2018-03-26T14:07:59.083Z,31.47
2018-03-26T14:10:38.372Z,37.13
2018-03-26T14:13:17.815Z,30.47
2018-03-26T14:15:57.037Z,24.83
2018-03-26T14:18:24.709Z,38.60
2018-03-26T14:20:52.962Z,35.53
2018-03-26T14:23:21.252Z,42.47
2018-03-26T14:25:48.775Z,39.67
2018-03-26T14:28:16.321Z,66.17
2018-03-26T14:30:43.832Z,26.20
2018-03-26T14:33:12.112Z,31.07
2018-03-26T14:35:41.264Z,37.80
2018-03-26T14:38:08.759Z,26.00
2018-03-26T14:40:37.617Z,27.10
2018-03-26T14:43:05.141Z,26.00
2018-03-26T14:45:32.733Z,56.77
2018-03-26T14:48:00.747Z,29.30
2018-03-26T14:50:28.302Z,26.00
2018-03-26T14:52:55.821Z,24.10
2018-03-26T14:55:23.568Z,32.37
2018-03-26T14:57:51.823Z,25.03
2018-03-26T15:00:19.334Z,15.80
2018-03-26T15:02:47.214Z,18.80
2018-03-26T15:05:14.742Z,19.23
2018-03-26T15:07:43.014Z,18.47
2018-03-26T15:10:10.525Z,13.87
2018-03-26T15:12:38.088Z,19.23
2018-03-26T15:15:05.696Z,17.83
2018-03-26T15:17:34.009Z,18.80
2018-03-26T15:20:02.348Z,20.97
2018-03-26T15:22:30.465Z,22.93
2018-03-26T15:24:58.720Z,11.90
2018-03-26T15:27:26.278Z,14.30
2018-03-26T15:29:53.791Z,14.47
2018-03-26T15:32:21.403Z,12.43
2018-03-26T15:34:48.918Z,14.40
2018-03-26T15:37:16.433Z,11.33
2018-03-26T15:39:44.861Z,10.40
2018-03-26T15:42:12.380Z,16.90
2018-03-26T15:44:39.894Z,14.03
2018-03-26T15:47:07.466Z,8.90
2018-03-26T15:49:35.017Z,13.97
2018-03-26T15:52:02.538Z,11.03
2018-03-26T15:54:30.084Z,12.07
2018-03-26T15:56:57.621Z,12.67
2018-03-26T15:59:26.233Z,11.83
2018-03-26T16:01:53.507Z,18.13
2018-03-26T16:04:21.048Z,11.57
2018-03-26T16:06:48.644Z,13.63
2018-03-26T16:09:16.300Z,8.63
2018-03-26T16:11:43.896Z,17.67
2018-03-26T16:14:12.178Z,15.03
2018-03-26T16:16:40.452Z,15.37
2018-03-26T16:19:08.770Z,9.87
2018-03-26T16:21:36.265Z,10.10
2018-03-26T16:24:03.824Z,16.87
2018-03-26T16:26:31.320Z,11.93
2018-03-26T16:28:59.593Z,12.30
2018-03-26T16:31:27.112Z,10.43
2018-03-26T16:33:54.646Z,13.60
2018-03-26T16:36:23.222Z,14.60
2018-03-26T16:38:51.512Z,10.47
2018-03-26T16:41:31.712Z,17.60
2018-03-26T16:43:59.626Z,14.87
2018-03-26T16:46:27.970Z,11.47
2018-03-26T16:48:55.567Z,12.47
2018-03-26T16:51:23.084Z,12.37
2018-03-26T16:53:50.600Z,17.97
2018-03-26T16:56:18.194Z,14.73
2018-03-26T16:58:45.725Z,18.07
2018-03-26T17:01:14.111Z,11.43
2018-03-26T17:03:42.599Z,18.70
2018-03-26T17:06:10.986Z,11.60
2018-03-26T17:08:39.308Z,15.00
2018-03-26T17:11:06.802Z,9.80
2018-03-26T17:13:34.320Z,8.00
2018-03-26T17:16:01.900Z,9.00
2018-03-26T17:18:29.420Z,10.97
2018-03-26T17:20:57.700Z,8.70
2018-03-26T17:23:26.370Z,10.90
2018-03-26T17:25:53.854Z,7.50
2018-03-26T17:28:21.474Z,13.27
2018-03-26T17:30:49.101Z,13.37
2018-03-26T17:33:16.756Z,13.30
2018-03-26T17:35:45.067Z,9.40
2018-03-26T17:38:12.576Z,11.80
2018-03-26T17:40:40.946Z,14.97
2018-03-26T17:43:08.589Z,11.93
2018-03-26T17:45:36.079Z,13.17
2018-03-26T17:48:03.707Z,11.10
2018-03-26T17:50:31.224Z,12.83
2018-03-26T17:52:59.564Z,10.23
2018-03-26T17:55:27.231Z,13.13
2018-03-26T17:57:55.379Z,15.20
2018-03-26T18:00:22.942Z,11.30
2018-03-26T18:02:50.690Z,15.97
2018-03-26T18:05:19.435Z,19.60
2018-03-26T18:07:46.915Z,10.80
2018-03-26T18:10:14.512Z,9.60
2018-03-26T18:12:41.986Z,9.97
2018-03-26T18:15:10.280Z,13.50
2018-03-26T18:17:37.791Z,11.67
2018-03-26T18:20:05.608Z,15.10
2018-03-26T18:22:33.128Z,7.73
2018-03-26T18:25:00.668Z,8.07
2018-03-26T18:27:28.410Z,7.97
2018-03-26T18:29:56.117Z,8.70
2018-03-26T18:32:23.610Z,8.63
2018-03-26T18:34:51.167Z,12.30
2018-03-26T18:37:18.688Z,16.50
2018-03-26T18:39:46.218Z,10.63
2018-03-26T18:42:13.892Z,8.87
2018-03-26T18:44:42.200Z,10.83
2018-03-26T18:47:11.154Z,14.00
2018-03-26T18:49:39.748Z,11.60
2018-03-26T18:52:08.011Z,11.30
2018-03-26T18:54:36.305Z,11.67
2018-03-26T18:57:04.644Z,14.60
2018-03-26T18:59:32.758Z,11.17
2018-03-26T19:02:01.028Z,12.67
2018-03-26T19:04:28.504Z,9.50
2018-03-26T19:06:56.794Z,10.43
2018-03-26T19:09:25.602Z,12.30
2018-03-26T19:11:53.151Z,7.87
2018-03-26T19:14:21.432Z,8.63
2018-03-26T19:16:49.714Z,10.23
2018-03-26T19:19:17.974Z,9.67
2018-03-26T19:21:45.498Z,15.87
2018-03-26T19:24:13.278Z,10.20
2018-03-26T19:26:40.805Z,14.10
2018-03-26T19:29:08.796Z,11.17
2018-03-26T19:31:36.311Z,12.90
2018-03-26T19:34:03.851Z,16.67
2018-03-26T19:36:31.377Z,10.70
2018-03-26T19:38:58.944Z,15.10
2018-03-26T19:41:26.495Z,11.57
2018-03-26T19:43:54.386Z,13.13
2018-03-26T19:46:21.936Z,11.93
2018-03-26T19:48:49.438Z,12.03
2018-03-26T19:51:16.970Z,14.03
2018-03-26T19:53:45.876Z,11.70
2018-03-26T19:56:13.464Z,16.00
2018-03-26T19:58:40.973Z,7.90
2018-03-26T20:01:08.520Z,11.40
2018-03-26T20:03:36.793Z,14.20
2018-03-26T20:06:04.370Z,8.83
2018-03-26T20:08:32.680Z,15.50
2018-03-26T20:11:00.505Z,10.40
2018-03-26T20:13:28.806Z,16.40
2018-03-26T20:15:57.098Z,18.10
2018-03-26T20:18:24.721Z,13.53
2018-03-26T20:20:52.220Z,12.53
2018-03-26T20:23:20.527Z,9.00
2018-03-26T20:25:49.314Z,12.93
2018-03-26T20:28:16.888Z,16.27
2018-03-26T20:30:44.396Z,11.87
2018-03-26T20:33:11.962Z,15.93
2018-03-26T20:35:39.479Z,10.87
2018-03-26T20:38:08.224Z,11.33
2018-03-26T20:40:36.976Z,10.93
2018-03-26T20:43:04.487Z,15.93
2018-03-26T20:45:32.746Z,17.70
2018-03-26T20:48:00.262Z,12.97
2018-03-26T20:50:27.783Z,11.60
2018-03-26T20:52:55.378Z,15.60
2018-03-26T20:55:24.294Z,13.40
2018-03-26T20:57:51.830Z,16.87
2018-03-26T21:00:19.387Z,11.83
2018-03-26T21:02:47.715Z,18.50
2018-03-26T21:05:15.261Z,11.97
2018-03-26T21:07:42.805Z,13.30
2018-03-26T21:10:11.184Z,13.80
2018-03-26T21:12:39.806Z,15.90
2018-03-26T21:15:07.307Z,10.40
2018-03-26T21:17:34.911Z,16.73
2018-03-26T21:20:02.421Z,10.53
2018-03-26T21:22:29.937Z,13.00
2018-03-26T21:24:57.505Z,15.67
2018-03-26T21:27:26.352Z,10.40
2018-03-26T21:29:54.827Z,12.63
2018-03-26T21:32:22.810Z,16.67
2018-03-26T21:34:51.392Z,15.20
2018-03-26T21:37:19.593Z,15.07
2018-03-26T21:39:47.151Z,15.70
2018-03-26T21:42:14.709Z,15.27
2018-03-26T21:44:42.289Z,20.33
2018-03-26T21:47:09.886Z,26.67
2018-03-26T21:49:37.901Z,13.47
2018-03-26T21:52:05.425Z,11.90
2018-03-26T21:54:32.957Z,15.20
2018-03-26T21:57:02.386Z,15.13
2018-03-26T21:59:30.888Z,10.57
2018-03-26T22:01:58.567Z,14.67
2018-03-26T22:04:26.125Z,14.17
2018-03-26T22:06:54.313Z,11.87
2018-03-26T22:09:21.821Z,13.57
2018-03-26T22:11:49.326Z,13.17
2018-03-26T22:14:16.943Z,13.60
2018-03-26T22:16:45.216Z,14.13
2018-03-26T22:19:14.661Z,11.30
2018-03-26T22:21:42.275Z,12.37
2018-03-26T22:24:10.608Z,13.93
2018-03-26T22:26:39.302Z,12.77
2018-03-26T22:29:07.564Z,10.30
2018-03-26T22:31:35.541Z,14.33
2018-03-26T22:34:03.039Z,10.73
2018-03-26T22:36:30.585Z,14.33
2018-03-26T22:38:58.907Z,12.67
2018-03-26T22:41:26.436Z,11.90
2018-03-26T22:43:54.872Z,11.63
2018-03-26T22:46:22.370Z,11.80
2018-03-26T22:48:49.914Z,15.30
2018-03-26T22:51:18.433Z,15.63
2018-03-26T22:53:48.329Z,8.20
2018-03-26T22:56:16.670Z,9.20
2018-03-26T22:58:44.172Z,9.83
2018-03-26T23:01:12.562Z,33.13
2018-03-26T23:03:40.130Z,12.67
2018-03-26T23:06:08.475Z,12.90
2018-03-26T23:08:35.970Z,12.93
2018-03-26T23:11:04.283Z,14.27
2018-03-26T23:13:31.796Z,15.30
2018-03-26T23:16:00.093Z,17.97
2018-03-26T23:18:28.367Z,9.93
2018-03-26T23:20:56.662Z,16.77
2018-03-26T23:23:24.934Z,9.93
2018-03-26T23:25:53.218Z,11.07
2018-03-26T23:28:21.496Z,9.00
2018-03-26T23:30:49.755Z,9.00
2018-03-26T23:33:17.220Z,13.00
2018-03-26T23:35:44.792Z,10.80
2018-03-26T23:38:12.306Z,16.87
2018-03-26T23:40:39.792Z,10.37
2018-03-26T23:43:07.274Z,11.50
2018-03-26T23:45:34.976Z,16.87
2018-03-26T23:48:02.467Z,11.70
2018-03-26T23:50:30.825Z,13.00
2018-03-26T23:52:58.349Z,9.20
2018-03-26T23:55:26.011Z,15.03
2018-03-26T23:57:53.498Z,10.30
